createdAt,value
2022-09-27T00:05:50.079Z,97211.60
2022-09-27T00:11:36.759Z,97200.60
2022-09-27T00:18:28.718Z,97193.40
2022-09-27T00:25:23.055Z,97186.20
2022-09-27T00:32:05.981Z,97176.20
2022-09-27T00:39:02.180Z,97174.00
2022-09-27T00:45:18.152Z,97166.80
2022-09-27T00:51:44.997Z,97157.60
2022-09-27T00:58:10.074Z,97151.00
2022-09-27T01:05:08.822Z,97150.40
2022-09-27T01:10:49.864Z,97134.00
2022-09-27T01:16:34.933Z,97124.80
2022-09-27T01:22:21.648Z,97123.60
2022-09-27T01:29:28.930Z,97117.40
2022-09-27T01:36:44.133Z,97104.20
2022-09-27T01:43:57.799Z,97084.80
2022-09-27T01:50:54.496Z,97075.00
2022-09-27T01:57:53.056Z,97064.80
2022-09-27T02:04:56.436Z,97066.60
2022-09-27T02:11:11.532Z,97056.20
2022-09-27T02:18:10.656Z,97054.40
2022-09-27T02:25:14.186Z,97055.20
2022-09-27T02:31:29.807Z,97049.60
2022-09-27T02:37:17.134Z,97030.40
2022-09-27T02:42:44.722Z,97025.00
2022-09-27T02:48:25.762Z,97019.80
2022-09-27T02:55:33.434Z,97021.40
2022-09-27T03:02:57.461Z,97014.80
2022-09-27T03:09:54.013Z,97013.60
2022-09-27T03:15:57.079Z,97007.40
2022-09-27T03:22:03.312Z,97007.40
2022-09-27T03:27:39.121Z,97003.80
2022-09-27T03:33:33.608Z,97000.20
2022-09-27T03:40:11.957Z,96996.20
2022-09-27T03:47:07.542Z,96992.20
2022-09-27T03:54:00.851Z,96986.60
2022-09-27T04:01:04.317Z,96984.60
2022-09-27T04:07:59.678Z,96979.40
2022-09-27T04:14:05.495Z,96970.80
2022-09-27T04:20:03.651Z,96968.60
2022-09-27T04:25:49.741Z,96964.60
2022-09-27T04:31:47.272Z,96960.80
2022-09-27T04:37:17.818Z,96951.60
2022-09-27T04:42:51.771Z,96953.20
2022-09-27T04:48:14.178Z,96955.80
2022-09-27T04:53:48.654Z,96958.40
2022-09-27T04:59:31.654Z,96945.60
2022-09-27T05:05:24.994Z,96942.80
2022-09-27T05:10:57.546Z,96935.60
2022-09-27T05:17:40.352Z,96941.40
2022-09-27T05:24:46.129Z,96939.80
2022-09-27T05:31:18.289Z,96936.40
2022-09-27T05:38:20.997Z,96931.60
2022-09-27T05:45:24.016Z,96923.40
2022-09-27T05:52:26.960Z,96921.80
2022-09-27T05:59:22.948Z,96912.60
2022-09-27T06:05:10.710Z,96900.20
2022-09-27T06:11:41.819Z,96899.20
2022-09-27T06:17:34.087Z,96911.40
2022-09-27T06:24:37.781Z,96908.40
2022-09-27T06:30:42.972Z,96926.40
2022-09-27T06:37:46.125Z,96923.80
2022-09-27T06:43:52.035Z,96917.60
2022-09-27T06:49:39.593Z,96911.60
2022-09-27T06:56:22.775Z,96907.40
2022-09-27T07:03:32.936Z,96902.00
2022-09-27T07:09:27.403Z,96898.20
2022-09-27T07:15:12.226Z,96910.00
2022-09-27T07:20:50.757Z,96911.00
2022-09-27T07:26:40.062Z,96901.40
2022-09-27T07:33:24.838Z,96891.60
2022-09-27T07:40:09.017Z,96898.00
2022-09-27T07:47:03.945Z,96902.20
2022-09-27T07:52:54.448Z,96899.40
2022-09-27T08:00:00.845Z,96889.40
2022-09-27T08:06:23.406Z,96883.00
2022-09-27T08:12:37.400Z,96883.40
2022-09-27T08:18:22.251Z,96887.60
2022-09-27T08:24:18.337Z,96879.40
2022-09-27T08:30:15.261Z,96865.20
2022-09-27T08:35:40.250Z,96861.80
2022-09-27T08:42:31.370Z,96866.60
2022-09-27T08:48:41.138Z,96864.60
2022-09-27T08:55:21.553Z,96867.20
2022-09-27T09:01:36.020Z,96853.00
2022-09-27T09:08:28.860Z,96854.40
2022-09-27T09:15:52.509Z,96853.80
2022-09-27T09:23:05.832Z,96842.80
2022-09-27T09:29:15.728Z,96839.40
2022-09-27T09:35:39.274Z,96833.00
2022-09-27T09:42:50.009Z,96829.40
2022-09-27T09:49:28.184Z,96815.00
2022-09-27T09:56:12.803Z,96803.00
2022-09-27T10:03:14.931Z,96797.60
2022-09-27T10:10:16.891Z,96784.40
2022-09-27T10:17:17.989Z,96786.20
2022-09-27T10:24:18.887Z,96779.00
2022-09-27T10:31:36.220Z,96775.00
2022-09-27T10:38:00.053Z,96758.60
2022-09-27T10:45:11.143Z,96760.80
2022-09-27T10:52:18.431Z,96763.60
2022-09-27T10:59:21.708Z,96752.00
2022-09-27T11:06:36.250Z,96758.20
2022-09-27T11:13:20.882Z,96751.40
2022-09-27T11:20:21.451Z,96748.40
2022-09-27T11:26:49.722Z,96746.00
2022-09-27T11:33:32.538Z,96741.20
2022-09-27T11:39:52.694Z,96731.20
2022-09-27T11:46:56.765Z,96726.60
2022-09-27T11:54:10.844Z,96720.00
2022-09-27T12:01:05.945Z,96715.80
2022-09-27T12:07:27.188Z,96711.80
2022-09-27T12:13:54.658Z,96705.20
2022-09-27T12:21:02.493Z,96701.60
2022-09-27T12:27:10.073Z,96701.60
2022-09-27T12:34:05.669Z,96702.40
2022-09-27T12:40:59.585Z,96707.60
2022-09-27T12:47:59.758Z,96695.20
2022-09-27T12:55:01.131Z,96698.20
2022-09-27T13:01:13.630Z,96693.40
2022-09-27T13:08:15.115Z,96696.20
2022-09-27T13:15:09.920Z,96692.20
2022-09-27T13:21:56.209Z,96689.80
2022-09-27T13:29:11.754Z,96694.00
2022-09-27T13:36:24.894Z,96702.40
2022-09-27T13:43:24.599Z,96708.60
2022-09-27T13:50:55.111Z,96711.20
2022-09-27T13:57:56.808Z,96709.80
2022-09-27T14:05:08.830Z,96710.40
2022-09-27T14:12:07.636Z,96716.40
2022-09-27T14:18:53.368Z,96736.00
2022-09-27T14:25:56.435Z,96770.60
2022-09-27T14:33:22.083Z,96787.00
2022-09-27T14:40:35.133Z,96777.40
2022-09-27T14:47:47.297Z,96773.40
2022-09-27T14:54:45.311Z,96778.80
2022-09-27T15:01:28.899Z,96775.80
2022-09-27T15:08:09.463Z,96767.60
2022-09-27T15:15:11.159Z,96764.80
2022-09-27T15:22:19.903Z,96761.00
2022-09-27T15:29:25.797Z,96748.20
2022-09-27T15:36:31.738Z,96736.60
2022-09-27T15:43:37.527Z,96757.60
2022-09-27T15:50:46.491Z,96747.40
2022-09-27T15:57:49.189Z,96752.20
2022-09-27T16:04:52.431Z,96771.40
2022-09-27T16:11:58.121Z,96796.60
2022-09-27T16:19:01.414Z,96790.60
2022-09-27T16:25:39.821Z,96775.80
2022-09-27T16:32:22.306Z,96778.80
2022-09-27T16:38:07.754Z,96776.20
2022-09-27T16:43:46.052Z,96777.40
2022-09-27T16:49:30.708Z,96785.40
2022-09-27T16:54:53.213Z,96798.00
2022-09-27T17:00:21.392Z,96798.20
2022-09-27T17:06:02.987Z,96803.40
2022-09-27T17:11:35.955Z,96805.00
2022-09-27T17:18:03.075Z,96792.80
2022-09-27T17:24:40.328Z,96809.00
2022-09-27T17:31:35.637Z,96815.40
2022-09-27T17:38:39.470Z,96808.20
2022-09-27T17:44:27.017Z,96807.00
2022-09-27T17:51:10.326Z,96805.40
2022-09-27T17:58:12.510Z,96808.20
2022-09-27T18:05:05.611Z,96815.80
2022-09-27T18:12:09.204Z,96814.60
2022-09-27T18:18:28.046Z,96820.60
2022-09-27T18:25:13.585Z,96829.60
2022-09-27T18:31:55.367Z,96831.60
2022-09-27T18:38:48.421Z,96829.60
2022-09-27T18:44:51.518Z,96838.60
2022-09-27T18:51:45.004Z,96828.20
2022-09-27T18:58:24.422Z,96832.80
2022-09-27T19:05:16.478Z,96835.40
2022-09-27T19:12:25.939Z,96830.60
2022-09-27T19:19:09.206Z,96839.20
2022-09-27T19:26:12.270Z,96831.20
2022-09-27T19:32:06.856Z,96833.80
2022-09-27T19:39:03.824Z,96833.00
2022-09-27T19:46:07.291Z,96830.60
2022-09-27T19:53:10.284Z,96835.00
2022-09-27T19:58:53.362Z,96836.80
2022-09-27T20:05:38.899Z,96835.80
2022-09-27T20:11:46.165Z,96847.00
2022-09-27T20:18:28.987Z,96846.20
2022-09-27T20:25:33.198Z,96853.00
2022-09-27T20:32:29.012Z,96856.40
2022-09-27T20:39:32.066Z,96861.80
2022-09-27T20:46:18.188Z,96855.60
2022-09-27T20:52:56.459Z,96856.60
2022-09-27T20:59:59.351Z,96859.80
2022-09-27T21:06:13.124Z,96866.40
2022-09-27T21:11:54.901Z,96856.80
2022-09-27T21:18:47.944Z,96856.40
2022-09-27T21:25:43.683Z,96856.00
2022-09-27T21:31:39.753Z,96853.80
2022-09-27T21:37:58.617Z,96867.60
2022-09-27T21:43:52.529Z,96874.40
2022-09-27T21:49:34.197Z,96884.20
2022-09-27T21:56:08.793Z,96873.20
2022-09-27T22:01:57.738Z,96885.40
2022-09-27T22:09:00.946Z,96880.20
2022-09-27T22:14:49.338Z,96890.20
2022-09-27T22:20:40.090Z,96893.80
2022-09-27T22:27:19.405Z,96890.60
2022-09-27T22:34:22.888Z,96893.20
2022-09-27T22:41:19.234Z,96884.40
2022-09-27T22:47:04.313Z,96874.00
2022-09-27T22:52:32.709Z,96878.80
2022-09-27T22:58:01.059Z,96871.60
2022-09-27T23:03:28.765Z,96872.60
2022-09-27T23:10:20.520Z,96874.40
2022-09-27T23:16:16.124Z,96872.20
2022-09-27T23:21:50.194Z,96874.40
2022-09-27T23:27:45.726Z,96870.40
2022-09-27T23:33:50.485Z,96882.40
2022-09-27T23:39:15.645Z,96873.40
2022-09-27T23:44:44.291Z,96867.00
2022-09-27T23:50:30.092Z,96870.60
2022-09-27T23:56:36.564Z,96873.00
